Terminal Aerodrome Forecast
Issued by NWS Sioux Falls, SD

Home | Current Version | Previous Version | Graphics & Text | Print | Product List | Glossary Off
Versions: 1 2 3 4 5 6 7 8 9 10 11 12 13 14 15 16 17

000
FTUS43 KFSD 291133
TAFFSD
TAF
KFSD 291133Z 2912/3012 04004KT P6SM SCT008 OVC015
      TEMPO 2912/2914 BKN008
     FM291400 06009KT P6SM OVC012
     FM291900 08010KT P6SM BKN028
     FM300700 08013KT P6SM OVC015
     FM301100 07014G20KT P6SM -RA OVC010=

USA.gov is the U.S. government's official web portal to all federal, state and local government web resources and services.